Terminal Aerodrome Forecast
Issued by NWS

Home | Current Version | Previous Version | Text Only | Print | Product List | Glossary On
Versions: 1 2 3 4 5 6 7 8 9 10 11 12 13 14 15 16 17 18 19 20 21 22 23 24
000
FTUS44 KOUN 301124
TAFLAW
TAF
KLAW 301124Z 3012/3112 VRB05KT P6SM SCT150
     FM301800 08007KT P6SM SCT050 SCT250 PROB30 3021/3103 4SM TSRA
      BKN050CB BKN100=

USA.gov is the U.S. government's official web portal to all federal, state and local government web resources and services.